sensor_id;sensor_type;location;lat;lon;timestamp;temperature;humidity
29547;DHT22;40782;47.264;11.330;2023-11-21T00:01:35;6.90;99.90
29547;DHT22;40782;47.264;11.330;2023-11-21T00:04:02;6.90;99.90
29547;DHT22;40782;47.264;11.330;2023-11-21T00:06:29;6.90;99.90
29547;DHT22;40782;47.264;11.330;2023-11-21T00:08:56;6.90;99.90
29547;DHT22;40782;47.264;11.330;2023-11-21T00:11:23;7.00;99.90
29547;DHT22;40782;47.264;11.330;2023-11-21T00:13:52;7.00;99.90
29547;DHT22;40782;47.264;11.330;2023-11-21T00:16:19;7.00;99.90
29547;DHT22;40782;47.264;11.330;2023-11-21T00:18:47;7.00;99.90
29547;DHT22;40782;47.264;11.330;2023-11-21T00:21:14;7.00;99.90
29547;DHT22;40782;47.264;11.330;2023-11-21T00:23:41;7.00;99.90
29547;DHT22;40782;47.264;11.330;2023-11-21T00:26:09;6.90;99.90
29547;DHT22;40782;47.264;11.330;2023-11-21T00:28:36;6.90;99.90
29547;DHT22;40782;47.264;11.330;2023-11-21T00:31:05;6.90;99.90
29547;DHT22;40782;47.264;11.330;2023-11-21T00:33:32;6.90;99.90
29547;DHT22;40782;47.264;11.330;2023-11-21T00:35:59;6.90;99.90
29547;DHT22;40782;47.264;11.330;2023-11-21T00:38:26;6.90;99.90
29547;DHT22;40782;47.264;11.330;2023-11-21T00:40:53;6.90;99.90
29547;DHT22;40782;47.264;11.330;2023-11-21T00:43:22;6.90;99.90
29547;DHT22;40782;47.264;11.330;2023-11-21T00:45:49;6.90;99.90
29547;DHT22;40782;47.264;11.330;2023-11-21T00:48:18;6.90;99.90
29547;DHT22;40782;47.264;11.330;2023-11-21T00:50:45;6.90;99.90
29547;DHT22;40782;47.264;11.330;2023-11-21T00:53:12;6.90;99.90
29547;DHT22;40782;47.264;11.330;2023-11-21T00:55:39;6.90;99.90
29547;DHT22;40782;47.264;11.330;2023-11-21T00:58:07;6.90;99.90
29547;DHT22;40782;47.264;11.330;2023-11-21T01:00:34;6.90;99.90
29547;DHT22;40782;47.264;11.330;2023-11-21T01:03:05;6.90;99.90
29547;DHT22;40782;47.264;11.330;2023-11-21T01:05:34;7.00;99.90
29547;DHT22;40782;47.264;11.330;2023-11-21T01:08:01;7.00;99.90
29547;DHT22;40782;47.264;11.330;2023-11-21T01:10:29;7.00;99.90
29547;DHT22;40782;47.264;11.330;2023-11-21T01:12:56;7.00;99.90
29547;DHT22;40782;47.264;11.330;2023-11-21T01:15:23;6.90;99.90
29547;DHT22;40782;47.264;11.330;2023-11-21T01:17:51;6.90;99.90
29547;DHT22;40782;47.264;11.330;2023-11-21T01:20:18;6.90;99.90
29547;DHT22;40782;47.264;11.330;2023-11-21T01:22:47;6.90;99.90
29547;DHT22;40782;47.264;11.330;2023-11-21T01:25:14;6.90;99.90
29547;DHT22;40782;47.264;11.330;2023-11-21T01:27:42;6.90;99.90
29547;DHT22;40782;47.264;11.330;2023-11-21T01:30:10;6.90;99.90
29547;DHT22;40782;47.264;11.330;2023-11-21T01:32:37;6.90;99.90
29547;DHT22;40782;47.264;11.330;2023-11-21T01:35:04;6.90;99.90
29547;DHT22;40782;47.264;11.330;2023-11-21T01:37:32;6.90;99.90
29547;DHT22;40782;47.264;11.330;2023-11-21T01:40:00;6.90;99.90
29547;DHT22;40782;47.264;11.330;2023-11-21T01:42:28;6.90;99.90
29547;DHT22;40782;47.264;11.330;2023-11-21T01:44:56;6.90;99.90
29547;DHT22;40782;47.264;11.330;2023-11-21T01:47:23;6.90;99.90
29547;DHT22;40782;47.264;11.330;2023-11-21T01:49:50;6.90;99.90
29547;DHT22;40782;47.264;11.330;2023-11-21T01:52:17;6.90;99.90
29547;DHT22;40782;47.264;11.330;2023-11-21T01:54:45;6.90;99.90
29547;DHT22;40782;47.264;11.330;2023-11-21T01:57:14;6.90;99.90
29547;DHT22;40782;47.264;11.330;2023-11-21T01:59:41;6.90;99.90
29547;DHT22;40782;47.264;11.330;2023-11-21T02:02:09;6.90;99.90
29547;DHT22;40782;47.264;11.330;2023-11-21T02:04:36;6.90;99.90
29547;DHT22;40782;47.264;11.330;2023-11-21T02:07:04;6.90;99.90
29547;DHT22;40782;47.264;11.330;2023-11-21T02:09:31;6.90;99.90
29547;DHT22;40782;47.264;11.330;2023-11-21T02:11:58;6.90;99.90
29547;DHT22;40782;47.264;11.330;2023-11-21T02:14:27;6.90;99.90
29547;DHT22;40782;47.264;11.330;2023-11-21T02:16:54;6.90;99.90
29547;DHT22;40782;47.264;11.330;2023-11-21T02:19:22;6.90;99.90
29547;DHT22;40782;47.264;11.330;2023-11-21T02:21:51;6.90;99.90
29547;DHT22;40782;47.264;11.330;2023-11-21T02:24:20;6.90;99.90
29547;DHT22;40782;47.264;11.330;2023-11-21T02:26:47;6.90;99.90
29547;DHT22;40782;47.264;11.330;2023-11-21T02:29:16;6.90;99.90
29547;DHT22;40782;47.264;11.330;2023-11-21T02:31:44;6.90;99.90
29547;DHT22;40782;47.264;11.330;2023-11-21T02:34:15;6.90;99.90
29547;DHT22;40782;47.264;11.330;2023-11-21T02:36:43;6.90;99.90
29547;DHT22;40782;47.264;11.330;2023-11-21T02:39:10;6.80;99.90
29547;DHT22;40782;47.264;11.330;2023-11-21T02:41:39;6.80;99.90
29547;DHT22;40782;47.264;11.330;2023-11-21T02:44:06;6.80;99.90
29547;DHT22;40782;47.264;11.330;2023-11-21T02:46:33;6.80;99.90
29547;DHT22;40782;47.264;11.330;2023-11-21T02:49:00;6.80;99.90
29547;DHT22;40782;47.264;11.330;2023-11-21T02:51:28;6.80;99.90
29547;DHT22;40782;47.264;11.330;2023-11-21T02:53:55;6.70;99.90
29547;DHT22;40782;47.264;11.330;2023-11-21T02:56:24;6.70;99.90
29547;DHT22;40782;47.264;11.330;2023-11-21T02:58:55;6.70;99.90
29547;DHT22;40782;47.264;11.330;2023-11-21T03:01:22;6.60;99.90
29547;DHT22;40782;47.264;11.330;2023-11-21T03:03:49;6.60;99.90
29547;DHT22;40782;47.264;11.330;2023-11-21T03:06:17;6.60;99.90
29547;DHT22;40782;47.264;11.330;2023-11-21T03:08:44;6.60;99.90
29547;DHT22;40782;47.264;11.330;2023-11-21T03:11:11;6.60;99.90
29547;DHT22;40782;47.264;11.330;2023-11-21T03:13:39;6.60;99.90
29547;DHT22;40782;47.264;11.330;2023-11-21T03:16:08;6.50;99.90
29547;DHT22;40782;47.264;11.330;2023-11-21T03:18:37;6.50;99.90
29547;DHT22;40782;47.264;11.330;2023-11-21T03:21:04;6.40;99.90
29547;DHT22;40782;47.264;11.330;2023-11-21T03:23:31;6.40;99.90
29547;DHT22;40782;47.264;11.330;2023-11-21T03:25:58;6.40;99.90
29547;DHT22;40782;47.264;11.330;2023-11-21T03:28:26;6.40;99.90
29547;DHT22;40782;47.264;11.330;2023-11-21T03:30:53;6.40;99.90
29547;DHT22;40782;47.264;11.330;2023-11-21T03:33:22;6.40;99.90
29547;DHT22;40782;47.264;11.330;2023-11-21T03:35:49;6.30;99.90
29547;DHT22;40782;47.264;11.330;2023-11-21T03:38:16;6.30;99.90
29547;DHT22;40782;47.264;11.330;2023-11-21T03:40:43;6.20;99.90
29547;DHT22;40782;47.264;11.330;2023-11-21T03:43:10;6.20;99.90
29547;DHT22;40782;47.264;11.330;2023-11-21T03:45:37;6.20;99.90
29547;DHT22;40782;47.264;11.330;2023-11-21T03:48:06;6.10;99.90
29547;DHT22;40782;47.264;11.330;2023-11-21T03:50:34;6.10;99.90
29547;DHT22;40782;47.264;11.330;2023-11-21T03:53:02;6.10;99.90
29547;DHT22;40782;47.264;11.330;2023-11-21T03:55:29;6.00;99.90
29547;DHT22;40782;47.264;11.330;2023-11-21T03:57:57;6.00;99.90
29547;DHT22;40782;47.264;11.330;2023-11-21T04:00:24;6.00;99.90
29547;DHT22;40782;47.264;11.330;2023-11-21T04:02:52;6.00;99.90
29547;DHT22;40782;47.264;11.330;2023-11-21T04:05:20;6.00;99.90
29547;DHT22;40782;47.264;11.330;2023-11-21T04:07:49;6.00;99.90
29547;DHT22;40782;47.264;11.330;2023-11-21T04:10:16;6.10;99.90
29547;DHT22;40782;47.264;11.330;2023-11-21T04:12:44;6.10;99.90
29547;DHT22;40782;47.264;11.330;2023-11-21T04:15:12;6.10;99.90
29547;DHT22;40782;47.264;11.330;2023-11-21T04:17:40;6.10;99.90
29547;DHT22;40782;47.264;11.330;2023-11-21T04:20:07;6.10;99.90
29547;DHT22;40782;47.264;11.330;2023-11-21T04:22:36;6.10;99.90
29547;DHT22;40782;47.264;11.330;2023-11-21T04:25:05;6.10;99.90
29547;DHT22;40782;47.264;11.330;2023-11-21T04:27:32;6.10;99.90
29547;DHT22;40782;47.264;11.330;2023-11-21T04:30:00;6.10;99.90
29547;DHT22;40782;47.264;11.330;2023-11-21T04:32:27;6.10;99.90
29547;DHT22;40782;47.264;11.330;2023-11-21T04:34:54;6.10;99.90
29547;DHT22;40782;47.264;11.330;2023-11-21T04:37:21;6.10;99.90
29547;DHT22;40782;47.264;11.330;2023-11-21T04:39:48;6.00;99.90
29547;DHT22;40782;47.264;11.330;2023-11-21T04:42:16;6.00;99.90
29547;DHT22;40782;47.264;11.330;2023-11-21T04:44:43;6.00;99.90
29547;DHT22;40782;47.264;11.330;2023-11-21T04:47:10;6.00;99.90
29547;DHT22;40782;47.264;11.330;2023-11-21T04:49:37;6.00;99.90
29547;DHT22;40782;47.264;11.330;2023-11-21T04:52:04;6.00;99.90
29547;DHT22;40782;47.264;11.330;2023-11-21T04:54:32;6.00;99.90
29547;DHT22;40782;47.264;11.330;2023-11-21T04:57:00;6.00;99.90
29547;DHT22;40782;47.264;11.330;2023-11-21T04:59:28;6.00;99.90
29547;DHT22;40782;47.264;11.330;2023-11-21T05:01:55;6.00;99.90
29547;DHT22;40782;47.264;11.330;2023-11-21T05:04:22;6.00;99.90
29547;DHT22;40782;47.264;11.330;2023-11-21T05:06:49;5.90;99.90
29547;DHT22;40782;47.264;11.330;2023-11-21T05:09:16;5.90;99.90
29547;DHT22;40782;47.264;11.330;2023-11-21T05:11:44;5.90;99.90
29547;DHT22;40782;47.264;11.330;2023-11-21T05:14:12;5.90;99.90
29547;DHT22;40782;47.264;11.330;2023-11-21T05:16:41;5.90;99.90
29547;DHT22;40782;47.264;11.330;2023-11-21T05:19:08;5.90;99.90
29547;DHT22;40782;47.264;11.330;2023-11-21T05:21:35;5.90;99.90
29547;DHT22;40782;47.264;11.330;2023-11-21T05:24:03;5.90;99.90
29547;DHT22;40782;47.264;11.330;2023-11-21T05:26:31;5.90;99.90
29547;DHT22;40782;47.264;11.330;2023-11-21T05:28:58;5.90;99.90
29547;DHT22;40782;47.264;11.330;2023-11-21T05:31:25;5.90;99.90
29547;DHT22;40782;47.264;11.330;2023-11-21T05:33:53;5.90;99.90
29547;DHT22;40782;47.264;11.330;2023-11-21T05:36:21;5.90;99.90
29547;DHT22;40782;47.264;11.330;2023-11-21T05:38:48;5.90;99.90
29547;DHT22;40782;47.264;11.330;2023-11-21T05:41:15;5.90;99.90
29547;DHT22;40782;47.264;11.330;2023-11-21T05:43:42;5.80;99.90
29547;DHT22;40782;47.264;11.330;2023-11-21T05:46:10;5.80;99.90
29547;DHT22;40782;47.264;11.330;2023-11-21T05:48:38;5.80;99.90
29547;DHT22;40782;47.264;11.330;2023-11-21T05:51:07;5.70;99.90
29547;DHT22;40782;47.264;11.330;2023-11-21T05:53:34;5.50;99.90
29547;DHT22;40782;47.264;11.330;2023-11-21T05:56:02;5.60;99.90
29547;DHT22;40782;47.264;11.330;2023-11-21T05:58:29;5.60;99.90
29547;DHT22;40782;47.264;11.330;2023-11-21T06:00:56;5.50;99.90
29547;DHT22;40782;47.264;11.330;2023-11-21T06:03:24;5.50;99.90
29547;DHT22;40782;47.264;11.330;2023-11-21T06:05:51;5.50;99.90
29547;DHT22;40782;47.264;11.330;2023-11-21T06:08:19;5.50;99.90
29547;DHT22;40782;47.264;11.330;2023-11-21T06:10:46;5.50;99.90
29547;DHT22;40782;47.264;11.330;2023-11-21T06:13:15;5.50;99.90
29547;DHT22;40782;47.264;11.330;2023-11-21T06:15:42;5.50;99.90
29547;DHT22;40782;47.264;11.330;2023-11-21T06:18:09;5.50;99.90
29547;DHT22;40782;47.264;11.330;2023-11-21T06:20:36;5.50;99.90
29547;DHT22;40782;47.264;11.330;2023-11-21T06:23:03;5.50;99.90
29547;DHT22;40782;47.264;11.330;2023-11-21T06:25:32;5.50;99.90
29547;DHT22;40782;47.264;11.330;2023-11-21T06:28:01;5.50;99.90
29547;DHT22;40782;47.264;11.330;2023-11-21T06:30:28;5.50;99.90
29547;DHT22;40782;47.264;11.330;2023-11-21T06:32:56;5.50;99.90
29547;DHT22;40782;47.264;11.330;2023-11-21T06:35:23;5.50;99.90
29547;DHT22;40782;47.264;11.330;2023-11-21T06:37:50;5.50;99.90
29547;DHT22;40782;47.264;11.330;2023-11-21T06:40:17;5.50;99.90
29547;DHT22;40782;47.264;11.330;2023-11-21T06:42:46;5.60;99.90
29547;DHT22;40782;47.264;11.330;2023-11-21T06:45:13;5.60;99.90
29547;DHT22;40782;47.264;11.330;2023-11-21T06:47:40;5.60;99.90
29547;DHT22;40782;47.264;11.330;2023-11-21T06:50:08;5.60;99.90
29547;DHT22;40782;47.264;11.330;2023-11-21T06:52:35;5.60;99.90
29547;DHT22;40782;47.264;11.330;2023-11-21T06:55:03;5.70;99.90
29547;DHT22;40782;47.264;11.330;2023-11-21T06:57:30;5.70;99.90
29547;DHT22;40782;47.264;11.330;2023-11-21T06:59:59;5.80;99.90
29547;DHT22;40782;47.264;11.330;2023-11-21T07:02:26;5.80;99.90
29547;DHT22;40782;47.264;11.330;2023-11-21T07:04:54;5.80;99.90
29547;DHT22;40782;47.264;11.330;2023-11-21T07:07:21;5.90;99.90
29547;DHT22;40782;47.264;11.330;2023-11-21T07:09:48;6.00;99.90
29547;DHT22;40782;47.264;11.330;2023-11-21T07:12:15;6.10;99.90
29547;DHT22;40782;47.264;11.330;2023-11-21T07:14:43;6.20;99.90
29547;DHT22;40782;47.264;11.330;2023-11-21T07:17:11;6.30;99.90
29547;DHT22;40782;47.264;11.330;2023-11-21T07:19:38;6.30;99.90
29547;DHT22;40782;47.264;11.330;2023-11-21T07:22:07;6.40;99.90
29547;DHT22;40782;47.264;11.330;2023-11-21T07:24:34;6.40;99.90
29547;DHT22;40782;47.264;11.330;2023-11-21T07:27:02;6.50;99.90
29547;DHT22;40782;47.264;11.330;2023-11-21T07:29:29;6.50;99.90
29547;DHT22;40782;47.264;11.330;2023-11-21T07:31:57;6.50;99.90
29547;DHT22;40782;47.264;11.330;2023-11-21T07:34:26;6.60;99.90
29547;DHT22;40782;47.264;11.330;2023-11-21T07:36:53;6.60;99.90
29547;DHT22;40782;47.264;11.330;2023-11-21T07:39:20;6.70;99.90
29547;DHT22;40782;47.264;11.330;2023-11-21T07:41:47;6.70;99.90
29547;DHT22;40782;47.264;11.330;2023-11-21T07:44:15;6.70;99.90
29547;DHT22;40782;47.264;11.330;2023-11-21T07:46:43;6.70;99.90
29547;DHT22;40782;47.264;11.330;2023-11-21T07:49:10;6.70;99.90
29547;DHT22;40782;47.264;11.330;2023-11-21T07:51:41;6.80;99.90
29547;DHT22;40782;47.264;11.330;2023-11-21T07:54:09;6.70;99.90
29547;DHT22;40782;47.264;11.330;2023-11-21T07:56:36;6.80;99.90
29547;DHT22;40782;47.264;11.330;2023-11-21T07:59:03;6.70;99.90
29547;DHT22;40782;47.264;11.330;2023-11-21T08:01:31;6.70;99.90
29547;DHT22;40782;47.264;11.330;2023-11-21T08:03:58;6.80;99.90
29547;DHT22;40782;47.264;11.330;2023-11-21T08:06:29;6.70;99.90
29547;DHT22;40782;47.264;11.330;2023-11-21T08:08:58;6.80;99.90
29547;DHT22;40782;47.264;11.330;2023-11-21T08:11:25;6.80;99.90
29547;DHT22;40782;47.264;11.330;2023-11-21T08:13:54;6.80;99.90
29547;DHT22;40782;47.264;11.330;2023-11-21T08:16:22;6.90;99.90
29547;DHT22;40782;47.264;11.330;2023-11-21T08:18:49;6.90;99.90
29547;DHT22;40782;47.264;11.330;2023-11-21T08:21:16;6.90;99.90
29547;DHT22;40782;47.264;11.330;2023-11-21T08:23:44;6.90;99.90
29547;DHT22;40782;47.264;11.330;2023-11-21T08:26:15;7.00;99.90
29547;DHT22;40782;47.264;11.330;2023-11-21T08:28:42;7.00;99.90
29547;DHT22;40782;47.264;11.330;2023-11-21T08:31:09;7.10;99.90
29547;DHT22;40782;47.264;11.330;2023-11-21T08:33:36;7.10;99.90
29547;DHT22;40782;47.264;11.330;2023-11-21T08:36:06;7.20;99.90
29547;DHT22;40782;47.264;11.330;2023-11-21T08:38:33;7.20;99.90
29547;DHT22;40782;47.264;11.330;2023-11-21T08:41:03;7.30;99.90
29547;DHT22;40782;47.264;11.330;2023-11-21T08:43:34;7.30;99.90
29547;DHT22;40782;47.264;11.330;2023-11-21T08:46:05;7.40;99.90
29547;DHT22;40782;47.264;11.330;2023-11-21T08:48:32;7.30;99.90
29547;DHT22;40782;47.264;11.330;2023-11-21T08:50:59;7.30;99.90
29547;DHT22;40782;47.264;11.330;2023-11-21T08:53:26;7.40;99.90
29547;DHT22;40782;47.264;11.330;2023-11-21T08:55:53;7.40;99.90
29547;DHT22;40782;47.264;11.330;2023-11-21T08:58:20;7.40;99.90
29547;DHT22;40782;47.264;11.330;2023-11-21T09:00:48;7.40;99.90
29547;DHT22;40782;47.264;11.330;2023-11-21T09:03:15;7.40;99.90
29547;DHT22;40782;47.264;11.330;2023-11-21T09:05:42;7.40;99.90
29547;DHT22;40782;47.264;11.330;2023-11-21T09:08:10;7.40;99.90
29547;DHT22;40782;47.264;11.330;2023-11-21T09:10:38;7.50;99.90
29547;DHT22;40782;47.264;11.330;2023-11-21T09:13:05;7.50;99.90
29547;DHT22;40782;47.264;11.330;2023-11-21T09:15:34;7.60;99.90
29547;DHT22;40782;47.264;11.330;2023-11-21T09:18:03;7.60;99.90
29547;DHT22;40782;47.264;11.330;2023-11-21T09:20:30;7.60;99.90
29547;DHT22;40782;47.264;11.330;2023-11-21T09:22:57;7.70;99.90
29547;DHT22;40782;47.264;11.330;2023-11-21T09:25:24;7.70;99.90
29547;DHT22;40782;47.264;11.330;2023-11-21T09:27:51;7.80;99.90
29547;DHT22;40782;47.264;11.330;2023-11-21T09:30:18;7.90;99.90
29547;DHT22;40782;47.264;11.330;2023-11-21T09:32:45;8.00;99.90
29547;DHT22;40782;47.264;11.330;2023-11-21T09:35:14;8.00;99.90
29547;DHT22;40782;47.264;11.330;2023-11-21T09:37:43;8.10;99.90
29547;DHT22;40782;47.264;11.330;2023-11-21T09:40:11;8.10;99.90
29547;DHT22;40782;47.264;11.330;2023-11-21T09:42:40;8.20;99.90
29547;DHT22;40782;47.264;11.330;2023-11-21T09:45:11;8.30;99.90
29547;DHT22;40782;47.264;11.330;2023-11-21T09:47:41;8.30;99.90
29547;DHT22;40782;47.264;11.330;2023-11-21T09:50:09;8.40;99.90
29547;DHT22;40782;47.264;11.330;2023-11-21T09:52:40;8.50;99.90
29547;DHT22;40782;47.264;11.330;2023-11-21T09:55:11;8.60;99.90
29547;DHT22;40782;47.264;11.330;2023-11-21T09:57:41;8.80;99.90
29547;DHT22;40782;47.264;11.330;2023-11-21T10:00:08;9.00;99.90
29547;DHT22;40782;47.264;11.330;2023-11-21T10:02:37;9.10;99.90
29547;DHT22;40782;47.264;11.330;2023-11-21T10:05:06;9.20;99.90
29547;DHT22;40782;47.264;11.330;2023-11-21T10:07:35;9.50;99.90
29547;DHT22;40782;47.264;11.330;2023-11-21T10:10:04;9.60;99.90
29547;DHT22;40782;47.264;11.330;2023-11-21T10:12:31;9.70;99.90
29547;DHT22;40782;47.264;11.330;2023-11-21T10:14:59;10.00;99.90
29547;DHT22;40782;47.264;11.330;2023-11-21T10:17:27;10.10;99.90
29547;DHT22;40782;47.264;11.330;2023-11-21T10:19:57;10.30;99.90
29547;DHT22;40782;47.264;11.330;2023-11-21T10:22:24;10.30;99.90
29547;DHT22;40782;47.264;11.330;2023-11-21T10:24:51;10.20;99.90
29547;DHT22;40782;47.264;11.330;2023-11-21T10:27:20;10.20;99.90
29547;DHT22;40782;47.264;11.330;2023-11-21T10:29:47;10.20;99.90
29547;DHT22;40782;47.264;11.330;2023-11-21T10:32:14;10.20;99.90
29547;DHT22;40782;47.264;11.330;2023-11-21T10:34:41;10.20;99.90
29547;DHT22;40782;47.264;11.330;2023-11-21T10:37:11;10.20;99.90
29547;DHT22;40782;47.264;11.330;2023-11-21T10:39:39;10.10;99.90
29547;DHT22;40782;47.264;11.330;2023-11-21T10:42:08;10.00;99.90
29547;DHT22;40782;47.264;11.330;2023-11-21T10:44:36;10.10;99.90
29547;DHT22;40782;47.264;11.330;2023-11-21T10:47:03;10.10;99.90
29547;DHT22;40782;47.264;11.330;2023-11-21T10:49:30;10.30;99.90
29547;DHT22;40782;47.264;11.330;2023-11-21T10:51:58;10.40;99.90
29547;DHT22;40782;47.264;11.330;2023-11-21T10:54:25;10.50;99.90
29547;DHT22;40782;47.264;11.330;2023-11-21T10:56:53;10.60;99.90
29547;DHT22;40782;47.264;11.330;2023-11-21T10:59:23;10.60;99.90
29547;DHT22;40782;47.264;11.330;2023-11-21T11:01:52;10.60;99.90
29547;DHT22;40782;47.264;11.330;2023-11-21T11:04:19;10.60;99.90
29547;DHT22;40782;47.264;11.330;2023-11-21T11:06:49;10.60;99.90
29547;DHT22;40782;47.264;11.330;2023-11-21T11:09:17;10.50;99.90
29547;DHT22;40782;47.264;11.330;2023-11-21T11:11:45;10.40;99.90
29547;DHT22;40782;47.264;11.330;2023-11-21T11:14:13;10.40;99.90
29547;DHT22;40782;47.264;11.330;2023-11-21T11:16:40;10.30;99.90
29547;DHT22;40782;47.264;11.330;2023-11-21T11:19:10;10.30;99.90
29547;DHT22;40782;47.264;11.330;2023-11-21T11:21:43;10.30;99.90
29547;DHT22;40782;47.264;11.330;2023-11-21T11:24:28;10.30;99.90
29547;DHT22;40782;47.264;11.330;2023-11-21T11:27:02;10.20;99.90
29547;DHT22;40782;47.264;11.330;2023-11-21T11:29:35;10.20;99.90
29547;DHT22;40782;47.264;11.330;2023-11-21T11:32:09;10.20;99.90
29547;DHT22;40782;47.264;11.330;2023-11-21T11:34:41;10.20;99.90
29547;DHT22;40782;47.264;11.330;2023-11-21T11:37:11;10.20;99.90
29547;DHT22;40782;47.264;11.330;2023-11-21T11:39:39;10.10;99.90
29547;DHT22;40782;47.264;11.330;2023-11-21T11:42:07;10.10;99.90
29547;DHT22;40782;47.264;11.330;2023-11-21T11:47:30;10.10;99.90
29547;DHT22;40782;47.264;11.330;2023-11-21T11:50:01;10.00;99.90
29547;DHT22;40782;47.264;11.330;2023-11-21T11:52:37;9.90;99.90
29547;DHT22;40782;47.264;11.330;2023-11-21T11:55:06;10.00;99.90
29547;DHT22;40782;47.264;11.330;2023-11-21T11:57:35;9.80;99.90
29547;DHT22;40782;47.264;11.330;2023-11-21T12:00:08;9.80;99.90
29547;DHT22;40782;47.264;11.330;2023-11-21T12:02:35;9.80;99.90
29547;DHT22;40782;47.264;11.330;2023-11-21T12:05:08;9.70;99.90
29547;DHT22;40782;47.264;11.330;2023-11-21T12:10:24;9.50;99.90
29547;DHT22;40782;47.264;11.330;2023-11-21T12:12:52;9.50;99.90
29547;DHT22;40782;47.264;11.330;2023-11-21T12:15:20;9.40;99.90
29547;DHT22;40782;47.264;11.330;2023-11-21T12:17:47;9.40;99.90
29547;DHT22;40782;47.264;11.330;2023-11-21T12:20:18;9.40;99.90
29547;DHT22;40782;47.264;11.330;2023-11-21T12:22:45;9.40;99.90
29547;DHT22;40782;47.264;11.330;2023-11-21T12:25:14;9.40;99.90
29547;DHT22;40782;47.264;11.330;2023-11-21T12:27:44;9.40;99.90
29547;DHT22;40782;47.264;11.330;2023-11-21T12:30:14;9.40;99.90
29547;DHT22;40782;47.264;11.330;2023-11-21T12:32:42;9.50;99.90
29547;DHT22;40782;47.264;11.330;2023-11-21T12:35:11;9.50;99.90
29547;DHT22;40782;47.264;11.330;2023-11-21T12:37:40;9.30;99.90
29547;DHT22;40782;47.264;11.330;2023-11-21T12:40:08;9.30;99.90
29547;DHT22;40782;47.264;11.330;2023-11-21T12:42:37;9.30;99.90
29547;DHT22;40782;47.264;11.330;2023-11-21T12:45:07;9.30;99.90
29547;DHT22;40782;47.264;11.330;2023-11-21T12:47:34;9.40;99.90
29547;DHT22;40782;47.264;11.330;2023-11-21T12:50:02;9.30;99.90
29547;DHT22;40782;47.264;11.330;2023-11-21T12:52:32;9.30;99.90
29547;DHT22;40782;47.264;11.330;2023-11-21T12:55:00;9.20;99.90
29547;DHT22;40782;47.264;11.330;2023-11-21T12:57:28;9.30;99.90
29547;DHT22;40782;47.264;11.330;2023-11-21T12:59:57;9.30;99.90
29547;DHT22;40782;47.264;11.330;2023-11-21T13:02:26;9.40;99.90
29547;DHT22;40782;47.264;11.330;2023-11-21T13:04:53;9.30;99.90
29547;DHT22;40782;47.264;11.330;2023-11-21T13:07:20;9.30;99.90
29547;DHT22;40782;47.264;11.330;2023-11-21T13:09:51;9.20;99.90
29547;DHT22;40782;47.264;11.330;2023-11-21T13:12:24;9.20;99.90
29547;DHT22;40782;47.264;11.330;2023-11-21T13:14:51;9.10;99.90
29547;DHT22;40782;47.264;11.330;2023-11-21T13:17:19;9.00;99.90
29547;DHT22;40782;47.264;11.330;2023-11-21T13:19:48;9.00;99.90
29547;DHT22;40782;47.264;11.330;2023-11-21T13:22:16;9.00;99.90
29547;DHT22;40782;47.264;11.330;2023-11-21T13:24:44;8.90;99.90
29547;DHT22;40782;47.264;11.330;2023-11-21T13:27:11;8.90;99.90
29547;DHT22;40782;47.264;11.330;2023-11-21T13:29:42;8.90;99.90
29547;DHT22;40782;47.264;11.330;2023-11-21T13:32:09;8.90;99.90
29547;DHT22;40782;47.264;11.330;2023-11-21T13:34:37;8.90;99.90
29547;DHT22;40782;47.264;11.330;2023-11-21T13:37:04;8.80;99.90
29547;DHT22;40782;47.264;11.330;2023-11-21T13:39:33;8.70;99.90
29547;DHT22;40782;47.264;11.330;2023-11-21T13:42:01;8.70;99.90
29547;DHT22;40782;47.264;11.330;2023-11-21T13:44:31;8.70;99.90
29547;DHT22;40782;47.264;11.330;2023-11-21T13:47:05;8.60;99.90
29547;DHT22;40782;47.264;11.330;2023-11-21T13:49:32;8.70;99.90
29547;DHT22;40782;47.264;11.330;2023-11-21T13:52:06;8.70;99.90
29547;DHT22;40782;47.264;11.330;2023-11-21T13:54:34;8.70;99.90
29547;DHT22;40782;47.264;11.330;2023-11-21T13:57:01;8.70;99.90
29547;DHT22;40782;47.264;11.330;2023-11-21T13:59:28;8.70;99.90
29547;DHT22;40782;47.264;11.330;2023-11-21T14:01:57;8.70;99.90
29547;DHT22;40782;47.264;11.330;2023-11-21T14:04:26;8.80;99.90
29547;DHT22;40782;47.264;11.330;2023-11-21T14:07:16;8.80;99.90
29547;DHT22;40782;47.264;11.330;2023-11-21T14:09:52;8.90;99.90
29547;DHT22;40782;47.264;11.330;2023-11-21T14:12:19;8.80;99.90
29547;DHT22;40782;47.264;11.330;2023-11-21T14:14:46;8.90;99.90
29547;DHT22;40782;47.264;11.330;2023-11-21T14:17:13;8.80;99.90
29547;DHT22;40782;47.264;11.330;2023-11-21T14:19:41;8.80;99.90
29547;DHT22;40782;47.264;11.330;2023-11-21T14:22:09;8.80;99.90
29547;DHT22;40782;47.264;11.330;2023-11-21T14:24:36;8.80;99.90
29547;DHT22;40782;47.264;11.330;2023-11-21T14:27:07;8.80;99.90
29547;DHT22;40782;47.264;11.330;2023-11-21T14:29:35;8.70;99.90
29547;DHT22;40782;47.264;11.330;2023-11-21T14:32:05;8.80;99.90
29547;DHT22;40782;47.264;11.330;2023-11-21T14:34:32;8.70;99.90
29547;DHT22;40782;47.264;11.330;2023-11-21T14:37:00;8.70;99.90
29547;DHT22;40782;47.264;11.330;2023-11-21T14:39:28;8.60;99.90
29547;DHT22;40782;47.264;11.330;2023-11-21T14:41:56;8.60;99.90
29547;DHT22;40782;47.264;11.330;2023-11-21T14:44:24;8.50;99.90
29547;DHT22;40782;47.264;11.330;2023-11-21T14:46:54;8.50;99.90
29547;DHT22;40782;47.264;11.330;2023-11-21T14:49:23;8.50;99.90
29547;DHT22;40782;47.264;11.330;2023-11-21T14:51:53;8.50;99.90
29547;DHT22;40782;47.264;11.330;2023-11-21T14:54:29;8.50;99.90
29547;DHT22;40782;47.264;11.330;2023-11-21T14:57:06;8.40;99.90
29547;DHT22;40782;47.264;11.330;2023-11-21T14:59:36;8.40;99.90
29547;DHT22;40782;47.264;11.330;2023-11-21T15:02:03;8.30;99.90
29547;DHT22;40782;47.264;11.330;2023-11-21T15:04:41;8.30;99.90
29547;DHT22;40782;47.264;11.330;2023-11-21T15:07:08;8.20;99.90
29547;DHT22;40782;47.264;11.330;2023-11-21T15:09:35;8.20;99.90
29547;DHT22;40782;47.264;11.330;2023-11-21T15:12:06;8.20;99.90
29547;DHT22;40782;47.264;11.330;2023-11-21T15:14:43;8.20;99.90
29547;DHT22;40782;47.264;11.330;2023-11-21T15:17:11;8.20;99.90
29547;DHT22;40782;47.264;11.330;2023-11-21T15:19:41;8.20;99.90
29547;DHT22;40782;47.264;11.330;2023-11-21T15:22:09;8.10;99.90
29547;DHT22;40782;47.264;11.330;2023-11-21T15:24:40;8.10;99.90
29547;DHT22;40782;47.264;11.330;2023-11-21T15:27:07;8.10;99.90
29547;DHT22;40782;47.264;11.330;2023-11-21T15:29:34;8.10;99.90
29547;DHT22;40782;47.264;11.330;2023-11-21T15:32:01;8.00;99.90
29547;DHT22;40782;47.264;11.330;2023-11-21T15:34:28;8.00;99.90
29547;DHT22;40782;47.264;11.330;2023-11-21T15:36:56;8.00;99.90
29547;DHT22;40782;47.264;11.330;2023-11-21T15:39:23;8.00;99.90
29547;DHT22;40782;47.264;11.330;2023-11-21T15:41:55;8.00;99.90